Lochalsh, Canada
Current Conditions -  °F | °C
As of 11:00 AM on Wednesday 22 Oct 2014 (Local Time) from CYXZ Reporting Station
Few Clouds Few Clouds  
Wind Chill: 33°   Ceiling: Unl
Heat Index: 37°   Visibility: 15mi
Dew Point: 30°   Wind: 6mph
Humidity: 75%   Direction: 190°S
Pressure: 30.41"   Gusts: NA
Location:  48.35°N, 84.27°W
Report Text: CYXZ 221500Z 19005KT 15SM FEW030 03/M01 A3041 RMK SC1 SLP313
Loading
Personal Weather Stations






























Interactive Weather Map
Tropical Storm Tracking
New forecast layout! Learn more

10-Day Weather Forecast

Advertisements
Track Severe Weather on mobile